Time;durP1;ratioP1;P1;durP2;ratioP2;P2;SDS_P1;SDS_P2;PMS_P1;PMS_P2;Temp;Humidity;BMP_temperature;BMP_pressure;BME280_temperature;BME280_humidity;BME280_pressure;Samples;Min_cycle;Max_cycle;Signal;HPM_P1;HPM_P2
2023/06/10 00:00:20;;;;;;;0.95;0.68;;;16.30;99.90;;;;;;4936325;29;20126;-70
2023/06/10 00:02:46;;;;;;;1.33;1.23;;;16.20;99.90;;;;;;4937695;29;20102;-71
2023/06/10 00:05:11;;;;;;;0.50;0.50;;;16.20;99.90;;;;;;4938244;29;20047;-71
2023/06/10 00:07:41;;;;;;;12.73;2.97;;;16.20;99.90;;;;;;4940832;29;20047;-71
2023/06/10 00:10:07;;;;;;;2.00;1.77;;;16.20;99.90;;;;;;4937994;29;20573;-71
2023/06/10 00:12:36;;;;;;;1.27;1.23;;;16.20;99.90;;;;;;4931709;29;20039;-70
2023/06/10 00:15:04;;;;;;;1.38;1.33;;;16.20;99.90;;;;;;4932221;29;20048;-71
2023/06/10 00:17:30;;;;;;;8.75;2.22;;;16.20;99.90;;;;;;4938944;29;20512;-70
2023/06/10 00:19:57;;;;;;;0.68;0.68;;;16.20;99.90;;;;;;4936905;29;20488;-71
2023/06/10 00:22:24;;;;;;;5.32;1.40;;;16.20;99.90;;;;;;4933709;29;20429;-71
2023/06/10 00:24:50;;;;;;;14.45;1.27;;;16.10;99.90;;;;;;4928559;29;20449;-71
2023/06/10 00:27:16;;;;;;;0.60;0.60;;;16.10;99.90;;;;;;4930996;29;20055;-71
2023/06/10 00:29:42;;;;;;;1.70;1.60;;;16.00;99.90;;;;;;4927206;29;20051;-70
2023/06/10 00:32:08;;;;;;;0.60;0.60;;;16.00;99.90;;;;;;4938597;29;20055;-71
2023/06/10 00:34:33;;;;;;;0.40;0.40;;;16.00;99.90;;;;;;4939296;29;20413;-71
2023/06/10 00:36:59;;;;;;;0.65;0.65;;;16.00;99.90;;;;;;4930100;29;20051;-71
2023/06/10 00:39:25;;;;;;;0.95;0.80;;;15.90;99.90;;;;;;4931959;29;20039;-71
2023/06/10 00:41:50;;;;;;;1.15;1.15;;;15.90;99.90;;;;;;4932136;28;20497;-70
2023/06/10 00:44:16;;;;;;;1.60;1.50;;;15.90;99.90;;;;;;4938205;29;20352;-71
2023/06/10 00:46:42;;;;;;;0.80;0.80;;;15.80;99.90;;;;;;4938048;29;20080;-70
2023/06/10 00:49:08;;;;;;;1.25;0.57;;;15.80;99.90;;;;;;4945314;29;20136;-70
2023/06/10 00:51:34;;;;;;;2.65;1.17;;;15.70;99.90;;;;;;4940233;28;20102;-71
2023/06/10 00:54:01;;;;;;;1.83;1.73;;;15.70;99.90;;;;;;4923552;29;20050;-70
2023/06/10 00:56:28;;;;;;;0.98;0.90;;;15.60;99.90;;;;;;4928440;29;20084;-70
2023/06/10 00:58:54;;;;;;;1.47;1.37;;;15.60;99.90;;;;;;4939377;29;20518;-70
2023/06/10 01:01:20;;;;;;;2.00;0.90;;;15.50;99.90;;;;;;4945830;29;20066;-70
2023/06/10 01:03:46;;;;;;;0.60;0.60;;;15.40;99.90;;;;;;4942326;29;20483;-71
2023/06/10 01:06:33;;;;;;;2.05;1.65;;;15.30;99.90;;;;;;4935642;29;20052;-70
2023/06/10 01:09:06;;;;;;;2.05;1.95;;;15.20;99.90;;;;;;4944064;28;20055;-70
2023/06/10 01:11:43;;;;;;;1.83;1.70;;;15.20;99.90;;;;;;4933312;28;20040;-70
2023/06/10 01:14:09;;;;;;;0.73;0.73;;;15.10;99.90;;;;;;4934333;29;20032;-70
2023/06/10 01:16:36;;;;;;;1.20;0.85;;;15.00;99.90;;;;;;4942961;29;20043;-71
2023/06/10 01:19:03;;;;;;;0.45;0.45;;;15.00;99.90;;;;;;4937221;29;20048;-70
2023/06/10 01:21:29;;;;;;;1.50;1.30;;;15.00;99.90;;;;;;4942785;29;20420;-70
2023/06/10 01:23:55;;;;;;;3.40;1.75;;;14.90;99.90;;;;;;4941191;28;20039;-70
2023/06/10 01:26:28;;;;;;;2.15;1.90;;;14.90;99.90;;;;;;4935053;29;20157;-70
2023/06/10 01:28:59;;;;;;;0.80;0.80;;;14.90;99.90;;;;;;4932948;29;20048;-70
2023/06/10 01:31:48;;;;;;;1.38;1.27;;;15.00;99.90;;;;;;4928487;29;20042;-70
2023/06/10 01:34:17;;;;;;;3.90;3.00;;;15.00;99.90;;;;;;4933095;29;20078;-70
2023/06/10 01:36:47;;;;;;;0.60;0.60;;;15.00;99.90;;;;;;4934885;29;20524;-70
2023/06/10 01:39:16;;;;;;;2.10;1.30;;;14.90;99.90;;;;;;4934351;29;20420;-70
2023/06/10 01:41:42;;;;;;;1.40;1.30;;;14.90;99.90;;;;;;4941666;28;20119;-70
2023/06/10 01:44:08;;;;;;;2.80;2.55;;;14.90;99.90;;;;;;4938374;29;20453;-70
2023/06/10 01:46:34;;;;;;;1.85;1.75;;;14.80;99.90;;;;;;4929265;29;20062;-70
2023/06/10 01:49:00;;;;;;;3.30;2.72;;;14.80;99.90;;;;;;4932086;29;20319;-71
2023/06/10 01:51:25;;;;;;;1.98;1.88;;;14.70;99.90;;;;;;4931948;29;20500;-70
2023/06/10 01:53:51;;;;;;;1.95;1.85;;;14.70;99.90;;;;;;4937278;29;20122;-70
2023/06/10 01:56:19;;;;;;;1.90;1.80;;;14.60;99.90;;;;;;4930592;29;20062;-70
2023/06/10 01:58:45;;;;;;;2.47;2.33;;;14.60;99.90;;;;;;4929710;29;20481;-71
2023/06/10 02:01:11;;;;;;;2.17;2.03;;;14.50;99.90;;;;;;4941359;29;20738;-70
2023/06/10 02:03:36;;;;;;;2.42;2.22;;;14.50;99.90;;;;;;4937355;29;20070;-70
2023/06/10 02:06:02;;;;;;;5.20;2.00;;;14.40;99.90;;;;;;4931440;29;20136;-71
2023/06/10 02:08:28;;;;;;;3.08;1.67;;;14.40;99.90;;;;;;4934232;29;20487;-70
2023/06/10 02:10:54;;;;;;;6.07;2.78;;;14.30;99.90;;;;;;4932418;29;20366;-70
2023/06/10 02:13:19;;;;;;;2.85;2.33;;;14.30;99.90;;;;;;4937762;29;20400;-71
2023/06/10 02:15:45;;;;;;;9.50;3.72;;;14.20;99.90;;;;;;4936841;28;20062;-70
2023/06/10 02:18:11;;;;;;;2.90;2.22;;;14.20;99.90;;;;;;4940945;29;20047;-70
2023/06/10 02:20:38;;;;;;;3.50;2.35;;;14.20;99.90;;;;;;4940088;29;20051;-70
2023/06/10 02:23:03;;;;;;;2.78;2.67;;;14.10;99.90;;;;;;4931572;29;20051;-70
2023/06/10 02:25:29;;;;;;;2.92;1.63;;;14.10;99.90;;;;;;4937086;29;20043;-70
2023/06/10 02:27:55;;;;;;;3.28;1.30;;;14.10;99.90;;;;;;4944938;29;20477;-70
2023/06/10 02:30:20;;;;;;;2.17;1.98;;;14.10;99.90;;;;;;4932533;29;20048;-70
2023/06/10 02:32:50;;;;;;;2.25;1.98;;;14.10;99.90;;;;;;4943914;29;20064;-70
2023/06/10 02:35:17;;;;;;;2.20;2.00;;;14.10;99.90;;;;;;4943602;28;20062;-71
2023/06/10 02:37:43;;;;;;;1.65;1.30;;;14.10;99.90;;;;;;4940611;29;20163;-70
2023/06/10 02:40:10;;;;;;;5.63;3.78;;;14.00;99.90;;;;;;4933637;28;20054;-71
2023/06/10 02:42:36;;;;;;;2.13;1.45;;;14.00;99.90;;;;;;4939236;29;20521;-71
2023/06/10 02:45:02;;;;;;;2.28;2.15;;;14.00;99.90;;;;;;4941395;29;20083;-70
2023/06/10 02:47:27;;;;;;;2.25;2.05;;;13.90;99.90;;;;;;4941218;29;20068;-70
2023/06/10 02:49:53;;;;;;;1.33;1.30;;;13.90;99.90;;;;;;4944782;29;20039;-70
2023/06/10 02:52:18;;;;;;;5.95;1.55;;;13.80;99.90;;;;;;4938410;29;20110;-70
2023/06/10 02:54:45;;;;;;;2.97;1.40;;;13.80;99.90;;;;;;4931550;29;20044;-70
2023/06/10 02:57:11;;;;;;;1.60;1.55;;;13.80;99.90;;;;;;4930777;29;20055;-70
2023/06/10 02:59:36;;;;;;;2.08;1.52;;;13.80;99.90;;;;;;4944764;29;20508;-70
2023/06/10 03:02:02;;;;;;;0.90;0.90;;;13.70;99.90;;;;;;4936612;28;20130;-70
2023/06/10 03:04:28;;;;;;;5.70;1.60;;;13.70;99.90;;;;;;4919435;29;20417;-70
2023/06/10 03:06:54;;;;;;;3.60;2.72;;;13.70;99.90;;;;;;4946279;29;20051;-70
2023/06/10 03:09:20;;;;;;;2.15;1.98;;;13.70;99.90;;;;;;4941808;28;20111;-70
2023/06/10 03:11:46;;;;;;;2.30;1.90;;;13.60;99.90;;;;;;4939244;29;20047;-70
2023/06/10 03:14:12;;;;;;;1.75;1.65;;;13.50;99.90;;;;;;4936500;29;20094;-70
2023/06/10 03:16:40;;;;;;;1.17;1.10;;;13.50;99.90;;;;;;4934339;29;20525;-70
2023/06/10 03:19:07;;;;;;;1.23;1.13;;;13.50;99.90;;;;;;4940819;29;20048;-70
2023/06/10 03:21:37;;;;;;;1.30;1.20;;;13.40;99.90;;;;;;4940625;29;20106;-70
2023/06/10 03:24:03;;;;;;;1.50;1.40;;;13.50;99.90;;;;;;4948228;29;20695;-71
2023/06/10 03:26:29;;;;;;;2.33;1.67;;;13.40;99.90;;;;;;4939500;28;20052;-70
2023/06/10 03:28:55;;;;;;;1.85;0.80;;;13.40;99.90;;;;;;4933764;29;20048;-70
2023/06/10 03:31:20;;;;;;;4.40;1.08;;;13.40;99.90;;;;;;4934787;29;20047;-70
2023/06/10 03:33:46;;;;;;;1.38;1.33;;;13.40;99.90;;;;;;4937688;29;20040;-70
2023/06/10 03:36:12;;;;;;;0.88;0.82;;;13.30;99.90;;;;;;4931489;29;20062;-70
2023/06/10 03:38:37;;;;;;;1.40;1.27;;;13.30;99.90;;;;;;4931054;29;20043;-70
2023/06/10 03:41:03;;;;;;;2.42;2.22;;;13.30;99.90;;;;;;4947350;29;20051;-70
2023/06/10 03:43:29;;;;;;;4.43;1.95;;;13.40;99.90;;;;;;4937111;29;20047;-70
2023/06/10 03:45:54;;;;;;;1.58;1.48;;;13.30;99.90;;;;;;4929323;29;20048;-70
2023/06/10 03:48:20;;;;;;;2.72;2.53;;;13.40;99.90;;;;;;4933067;29;20528;-70
2023/06/10 03:50:47;;;;;;;2.78;2.53;;;13.40;99.90;;;;;;4923864;29;20079;-70
2023/06/10 03:53:13;;;;;;;4.90;3.42;;;13.40;99.90;;;;;;4933698;29;20078;-70
2023/06/10 03:55:38;;;;;;;0.90;0.90;;;13.40;99.90;;;;;;4938437;29;20093;-70
2023/06/10 03:58:04;;;;;;;10.13;2.42;;;13.50;99.90;;;;;;4939919;29;20057;-70
2023/06/10 04:00:30;;;;;;;2.10;1.88;;;13.80;99.90;;;;;;4943098;28;20126;-70
2023/06/10 04:02:57;;;;;;;2.00;1.90;;;13.90;99.90;;;;;;4932980;29;20067;-70
2023/06/10 04:05:23;;;;;;;2.25;1.27;;;14.00;99.90;;;;;;4929741;29;20288;-70
2023/06/10 04:07:49;;;;;;;3.72;3.50;;;14.10;99.90;;;;;;4933748;29;20082;-70
2023/06/10 04:10:15;;;;;;;3.13;2.70;;;14.10;99.90;;;;;;4932660;29;20078;-70
2023/06/10 04:12:41;;;;;;;2.55;2.42;;;14.20;99.90;;;;;;4931029;29;20067;-70
2023/06/10 04:15:07;;;;;;;2.28;2.10;;;14.20;99.90;;;;;;4931914;29;20111;-70
2023/06/10 04:17:33;;;;;;;2.53;2.33;;;14.40;99.90;;;;;;4939296;29;20051;-70
2023/06/10 04:20:00;;;;;;;3.30;3.00;;;14.60;99.90;;;;;;4936554;29;20046;-69
2023/06/10 04:22:26;;;;;;;5.85;4.20;;;14.60;99.90;;;;;;4939102;29;20134;-70
2023/06/10 04:24:52;;;;;;;4.88;3.83;;;14.50;99.90;;;;;;4927837;29;20106;-70
2023/06/10 04:27:18;;;;;;;2.70;2.13;;;14.30;99.90;;;;;;4935358;29;20051;-70
2023/06/10 04:29:43;;;;;;;2.60;2.42;;;14.20;99.90;;;;;;4930717;28;20123;-70
2023/06/10 04:32:09;;;;;;;3.50;3.20;;;14.10;99.90;;;;;;4934757;29;20449;-69
2023/06/10 04:34:35;;;;;;;5.93;3.08;;;14.10;99.90;;;;;;4936062;28;20059;-70
2023/06/10 04:37:01;;;;;;;3.90;3.03;;;14.20;99.90;;;;;;4930032;29;20054;-70
2023/06/10 04:39:27;;;;;;;4.55;1.60;;;14.30;99.90;;;;;;4934773;29;20044;-70
2023/06/10 04:41:52;;;;;;;2.97;2.72;;;14.40;99.90;;;;;;4931873;29;20047;-70
2023/06/10 04:44:18;;;;;;;5.07;3.33;;;14.30;99.90;;;;;;4941917;29;20533;-70
2023/06/10 04:46:45;;;;;;;4.28;3.88;;;14.30;99.90;;;;;;4931667;29;20044;-70
2023/06/10 04:49:10;;;;;;;2.40;2.22;;;14.30;99.90;;;;;;4938856;29;20141;-70
2023/06/10 04:51:37;;;;;;;4.95;4.47;;;14.30;99.90;;;;;;4934036;29;20067;-70
2023/06/10 04:54:03;;;;;;;6.90;3.45;;;14.30;99.90;;;;;;4939515;29;20169;-70
2023/06/10 04:56:30;;;;;;;3.42;3.15;;;14.40;99.90;;;;;;4933208;29;20428;-70
2023/06/10 04:58:59;;;;;;;4.57;4.15;;;14.50;99.90;;;;;;4928793;29;20056;-70
2023/06/10 05:01:25;;;;;;;5.00;4.40;;;14.60;99.90;;;;;;4926348;29;20048;-70
2023/06/10 05:03:51;;;;;;;6.32;4.50;;;14.70;99.90;;;;;;4936986;28;20048;-70
2023/06/10 05:06:17;;;;;;;5.00;2.92;;;14.60;99.90;;;;;;4930811;28;20536;-70
2023/06/10 05:08:43;;;;;;;4.70;3.63;;;14.60;99.90;;;;;;4934073;29;20414;-70
2023/06/10 05:11:08;;;;;;;2.88;2.47;;;14.60;99.90;;;;;;4931078;29;20092;-70
2023/06/10 05:13:34;;;;;;;3.72;3.40;;;14.60;99.90;;;;;;4940895;28;20139;-70
2023/06/10 05:16:02;;;;;;;5.05;3.95;;;14.70;99.90;;;;;;4927157;29;20055;-70
2023/06/10 05:18:27;;;;;;;3.00;2.80;;;14.70;99.90;;;;;;4942018;28;20528;-70
2023/06/10 05:20:53;;;;;;;3.05;2.85;;;14.70;99.90;;;;;;4944646;28;20051;-70
2023/06/10 05:23:19;;;;;;;6.05;4.43;;;14.80;99.90;;;;;;4935396;29;20106;-70
2023/06/10 05:25:45;;;;;;;3.67;3.38;;;14.80;99.90;;;;;;4935351;29;20054;-70
2023/06/10 05:28:11;;;;;;;4.63;2.08;;;14.80;99.90;;;;;;4939519;29;20462;-70
2023/06/10 05:30:37;;;;;;;6.00;5.47;;;14.80;99.90;;;;;;4932503;28;20035;-70
2023/06/10 05:33:06;;;;;;;4.25;3.67;;;14.90;99.90;;;;;;4926380;29;20151;-71
2023/06/10 05:35:33;;;;;;;5.35;4.53;;;15.10;99.90;;;;;;4938334;28;20409;-70
2023/06/10 05:37:58;;;;;;;4.35;2.85;;;15.20;99.90;;;;;;4930030;29;20052;-70
2023/06/10 05:40:24;;;;;;;3.63;3.40;;;15.40;99.90;;;;;;4933051;28;20409;-71
2023/06/10 05:42:49;;;;;;;4.28;2.15;;;15.70;99.90;;;;;;4938347;29;20117;-71
2023/06/10 05:45:15;;;;;;;2.95;2.65;;;16.00;99.90;;;;;;4939047;29;20062;-75
2023/06/10 05:47:41;;;;;;;5.10;4.13;;;16.20;99.90;;;;;;4931058;29;20062;-75
2023/06/10 05:53:20;;;;;;;7.72;2.72;;;16.50;99.90;;;;;;5098589;27;1942294;-80
2023/06/10 05:55:46;;;;;;;3.38;3.08;;;16.50;99.90;;;;;;5138626;27;20054;-82
2023/06/10 05:58:13;;;;;;;3.55;3.25;;;16.50;99.90;;;;;;5139365;27;20095;-82
2023/06/10 06:00:40;;;;;;;3.05;2.60;;;16.40;99.90;;;;;;5140888;27;20042;-79
2023/06/10 06:28:39;;;;;;;1.60;1.50;;;17.00;99.90;;;;;;5103702;27;20795;-71
2023/06/10 06:31:06;;;;;;;1.73;1.60;;;17.10;99.90;;;;;;5084723;28;20147;-71
2023/06/10 06:33:32;;;;;;;2.65;2.30;;;17.20;99.90;;;;;;5085813;28;20044;-71
2023/06/10 06:35:59;;;;;;;1.60;1.50;;;17.30;99.90;;;;;;5084598;28;20047;-68
2023/06/10 06:38:26;;;;;;;1.60;1.40;;;17.40;99.90;;;;;;5080984;28;20110;-70
2023/06/10 06:40:51;;;;;;;2.40;2.20;;;17.60;99.90;;;;;;5083783;28;20101;-70
2023/06/10 06:43:18;;;;;;;1.85;1.75;;;17.60;99.90;;;;;;5084193;28;20040;-70
2023/06/10 06:45:45;;;;;;;3.35;3.13;;;17.70;99.90;;;;;;5083930;28;20079;-70
2023/06/10 06:48:11;;;;;;;2.55;2.35;;;17.90;99.90;;;;;;5083979;28;20040;-70
2023/06/10 06:50:37;;;;;;;3.00;2.80;;;18.00;99.90;;;;;;5084392;28;20052;-68
2023/06/10 06:53:03;;;;;;;2.60;2.45;;;18.20;99.90;;;;;;5085536;28;20127;-68
2023/06/10 06:55:29;;;;;;;2.03;1.90;;;18.40;99.90;;;;;;5083556;28;20135;-69
2023/06/10 06:57:55;;;;;;;3.58;3.22;;;18.50;99.90;;;;;;5085666;28;20123;-69
2023/06/10 07:00:21;;;;;;;1.90;1.73;;;18.60;99.90;;;;;;5081602;28;20533;-68
2023/06/10 07:02:47;;;;;;;2.80;2.60;;;18.80;99.90;;;;;;5084600;28;20405;-68
2023/06/10 07:05:13;;;;;;;3.08;2.88;;;18.80;99.90;;;;;;5082793;28;20043;-68
2023/06/10 07:07:39;;;;;;;5.63;3.65;;;18.90;99.90;;;;;;5079795;28;20045;-70
2023/06/10 07:10:05;;;;;;;2.40;2.20;;;19.00;99.90;;;;;;5080123;28;20064;-69
2023/06/10 07:12:30;;;;;;;2.47;2.28;;;19.10;99.90;;;;;;5080318;28;20044;-69
2023/06/10 07:14:56;;;;;;;3.28;2.97;;;19.20;99.90;;;;;;5084505;28;20051;-68
2023/06/10 07:17:22;;;;;;;4.45;3.85;;;19.30;99.90;;;;;;5082511;28;20048;-68
2023/06/10 07:19:47;;;;;;;5.65;4.15;;;19.30;99.90;;;;;;5082395;28;20052;-68
2023/06/10 07:22:13;;;;;;;2.67;2.47;;;19.50;99.90;;;;;;5080695;28;20390;-68
2023/06/10 07:24:39;;;;;;;3.67;3.30;;;19.80;99.90;;;;;;5077268;28;20056;-68
2023/06/10 07:27:05;;;;;;;5.90;4.13;;;20.00;99.90;;;;;;5083137;28;20045;-68
2023/06/10 07:29:31;;;;;;;3.00;2.47;;;20.10;99.90;;;;;;5077902;28;20048;-69
2023/06/10 07:31:57;;;;;;;2.42;1.73;;;20.30;99.90;;;;;;5078101;28;20063;-69
2023/06/10 07:34:22;;;;;;;2.28;2.17;;;20.50;99.90;;;;;;5080450;28;20143;-69
2023/06/10 07:36:48;;;;;;;4.80;4.32;;;20.80;99.90;;;;;;5077415;28;20044;-69
2023/06/10 07:39:13;;;;;;;3.20;3.00;;;21.00;99.90;;;;;;5064046;28;20123;-69
2023/06/10 07:41:39;;;;;;;2.95;2.65;;;21.20;99.90;;;;;;5070967;28;20044;-69
2023/06/10 07:44:05;;;;;;;1.42;1.33;;;21.30;99.90;;;;;;5063765;28;20048;-69
2023/06/10 07:46:30;;;;;;;1.65;1.55;;;21.50;99.90;;;;;;5070785;28;20044;-69
2023/06/10 07:48:56;;;;;;;2.40;2.28;;;21.70;99.90;;;;;;5067373;28;20040;-69
2023/06/10 07:51:22;;;;;;;3.95;2.60;;;21.90;99.90;;;;;;5071141;28;20115;-69
2023/06/10 07:53:48;;;;;;;2.47;2.30;;;22.00;99.90;;;;;;5069424;28;20557;-69
2023/06/10 07:56:13;;;;;;;3.45;3.13;;;22.10;99.90;;;;;;5052866;28;20490;-69
2023/06/10 07:58:39;;;;;;;3.03;2.83;;;22.20;99.90;;;;;;5064788;28;20048;-69
2023/06/10 08:01:05;;;;;;;2.05;1.88;;;22.20;99.90;;;;;;5069009;28;20482;-69
2023/06/10 08:03:30;;;;;;;4.13;3.13;;;22.40;99.90;;;;;;5071058;28;20048;-69
2023/06/10 08:05:56;;;;;;;4.50;3.60;;;22.40;99.90;;;;;;5061267;28;20084;-69
2023/06/10 08:08:22;;;;;;;1.33;1.33;;;22.50;99.90;;;;;;5062839;28;20040;-71
2023/06/10 08:10:49;;;;;;;2.55;2.25;;;22.50;99.90;;;;;;5062317;28;20062;-70
2023/06/10 08:13:14;;;;;;;3.00;2.72;;;22.70;99.90;;;;;;5068342;28;20461;-70
2023/06/10 08:15:40;;;;;;;2.38;1.70;;;22.80;99.90;;;;;;5052695;28;20080;-70
2023/06/10 08:18:06;;;;;;;4.85;2.03;;;22.90;99.90;;;;;;5069167;28;20036;-69
2023/06/10 08:20:32;;;;;;;2.55;2.35;;;23.10;99.90;;;;;;5069099;28;20425;-71
2023/06/10 08:22:57;;;;;;;2.33;2.13;;;23.10;98.50;;;;;;5068169;28;20067;-71
2023/06/10 08:25:23;;;;;;;2.30;2.17;;;23.20;98.10;;;;;;5061487;28;20404;-71
2023/06/10 08:27:50;;;;;;;2.80;2.58;;;23.50;99.00;;;;;;5064775;28;20049;-71
2023/06/10 08:30:16;;;;;;;1.95;1.85;;;23.70;97.00;;;;;;5068814;28;20040;-73
2023/06/10 08:32:42;;;;;;;1.88;1.80;;;23.80;97.20;;;;;;5061854;28;20045;-72
2023/06/10 08:35:08;;;;;;;2.47;2.28;;;23.90;94.10;;;;;;5061909;28;20048;-73
2023/06/10 08:37:33;;;;;;;3.10;2.25;;;23.90;92.50;;;;;;5065648;28;20462;-73
2023/06/10 08:39:59;;;;;;;3.40;3.13;;;23.90;93.30;;;;;;5060582;28;20037;-72
2023/06/10 08:42:33;;;;;;;3.22;2.33;;;24.00;92.30;;;;;;5068223;28;20059;-71
2023/06/10 08:45:02;;;;;;;3.42;3.20;;;24.00;93.50;;;;;;5069170;28;20378;-72
2023/06/10 08:47:35;;;;;;;5.55;3.10;;;24.00;90.80;;;;;;5057029;28;20099;-72
2023/06/10 08:50:03;;;;;;;2.75;1.77;;;24.10;90.50;;;;;;5060270;28;20045;-72
2023/06/10 08:52:35;;;;;;;1.02;1.02;;;24.20;92.40;;;;;;5062106;28;20044;-72
2023/06/10 08:55:05;;;;;;;4.18;2.70;;;24.40;92.20;;;;;;5060983;28;20494;-72
2023/06/10 08:57:31;;;;;;;7.63;6.75;;;24.80;91.00;;;;;;5064825;28;20110;-72
2023/06/10 08:59:57;;;;;;;4.57;4.28;;;25.00;89.90;;;;;;5063860;28;20489;-74
2023/06/10 09:02:24;;;;;;;2.95;2.72;;;25.10;84.00;;;;;;5053816;28;20041;-74
2023/06/10 09:04:51;;;;;;;3.03;2.70;;;25.10;87.50;;;;;;5053464;28;20040;-72
2023/06/10 09:07:17;;;;;;;2.03;1.92;;;25.30;86.70;;;;;;5066230;28;20493;-72
2023/06/10 09:09:44;;;;;;;25.23;17.50;;;25.60;87.10;;;;;;5066633;28;20127;-71
2023/06/10 09:12:11;;;;;;;16.52;15.07;;;25.80;85.80;;;;;;5052671;28;20040;-71
2023/06/10 09:14:37;;;;;;;12.68;11.65;;;26.00;84.10;;;;;;5058427;28;20059;-72
2023/06/10 09:17:04;;;;;;;9.10;8.43;;;26.10;85.30;;;;;;5068526;28;20041;-71
2023/06/10 09:19:31;;;;;;;6.85;6.32;;;26.30;82.70;;;;;;5053072;28;20053;-72
2023/06/10 09:21:57;;;;;;;4.88;4.47;;;26.30;77.50;;;;;;5054814;28;20044;-71
2023/06/10 09:24:23;;;;;;;3.63;3.35;;;26.30;75.60;;;;;;5057930;28;20513;-72
2023/06/10 09:26:50;;;;;;;2.60;2.13;;;26.40;77.90;;;;;;5066041;28;20052;-72
2023/06/10 09:29:16;;;;;;;3.55;3.25;;;26.40;75.10;;;;;;5064853;28;20049;-71
2023/06/10 09:31:44;;;;;;;2.25;2.15;;;26.30;74.60;;;;;;5064371;28;20045;-71
2023/06/10 09:34:16;;;;;;;3.30;3.05;;;26.30;76.00;;;;;;5066367;28;20048;-72
2023/06/10 09:36:42;;;;;;;1.38;1.38;;;26.60;74.30;;;;;;5065192;28;20045;-69
2023/06/10 09:39:17;;;;;;;2.33;2.20;;;26.90;72.00;;;;;;5061690;28;20037;-75
2023/06/10 09:41:44;;;;;;;4.43;2.58;;;26.90;69.80;;;;;;5059543;28;20048;-69
2023/06/10 09:44:18;;;;;;;2.47;2.28;;;26.70;69.40;;;;;;5049426;28;20093;-69
2023/06/10 09:46:50;;;;;;;2.15;1.65;;;26.40;68.40;;;;;;5060383;28;20086;-69
2023/06/10 09:49:18;;;;;;;3.75;2.67;;;26.30;70.30;;;;;;5062857;28;20088;-69
2023/06/10 09:51:54;;;;;;;1.42;1.33;;;26.20;66.30;;;;;;5054827;28;20462;-69
2023/06/10 09:54:21;;;;;;;1.83;1.73;;;26.30;68.10;;;;;;5058741;28;20044;-70
2023/06/10 09:56:48;;;;;;;3.57;2.70;;;26.20;61.20;;;;;;5060389;28;20151;-69
2023/06/10 09:59:14;;;;;;;3.72;2.28;;;26.30;68.30;;;;;;5062364;28;20155;-69
2023/06/10 10:01:40;;;;;;;6.15;1.52;;;26.50;65.20;;;;;;5061897;28;20182;-69
2023/06/10 10:04:05;;;;;;;2.25;1.83;;;26.50;62.60;;;;;;5060354;28;20045;-69
2023/06/10 10:06:31;;;;;;;1.45;1.35;;;26.50;60.80;;;;;;5066973;28;20040;-69
2023/06/10 10:08:57;;;;;;;1.33;1.23;;;26.50;64.70;;;;;;5063932;28;20044;-69
2023/06/10 10:11:25;;;;;;;2.17;2.05;;;26.60;64.80;;;;;;5060550;28;20475;-69
2023/06/10 10:13:52;;;;;;;1.75;1.65;;;26.90;65.20;;;;;;5067243;28;20064;-69
2023/06/10 10:16:29;;;;;;;1.63;1.58;;;26.90;64.10;;;;;;5059917;28;20063;-69
2023/06/10 10:19:01;;;;;;;2.15;2.05;;;26.90;59.40;;;;;;5066473;28;20047;-69
2023/06/10 10:21:35;;;;;;;7.10;2.50;;;27.10;59.70;;;;;;5053164;28;20517;-69
2023/06/10 10:24:21;;;;;;;1.35;1.15;;;27.20;58.50;;;;;;5065708;28;20040;-69
2023/06/10 10:26:48;;;;;;;5.63;2.63;;;27.40;60.70;;;;;;5063407;28;20052;-69
2023/06/10 10:29:23;;;;;;;;;;;27.20;56.90;;;;;;5066115;28;20819;-69
2023/06/10 10:31:54;;;;;;;3.45;2.28;;;27.10;57.40;;;;;;5070633;28;19920;-69
2023/06/10 10:34:27;;;;;;;3.60;3.30;;;27.20;60.10;;;;;;5066982;28;20080;-69
2023/06/10 10:36:54;;;;;;;1.85;1.42;;;27.30;61.60;;;;;;5065393;28;20083;-69
2023/06/10 10:39:20;;;;;;;1.80;1.33;;;27.40;57.50;;;;;;5063865;28;20033;-69
2023/06/10 10:41:47;;;;;;;2.08;1.95;;;27.50;54.10;;;;;;5057813;28;20037;-69
2023/06/10 10:44:13;;;;;;;1.27;1.27;;;27.50;54.70;;;;;;5066703;28;20041;-69
2023/06/10 10:46:43;;;;;;;1.15;1.15;;;27.60;57.20;;;;;;5059751;28;20139;-69
2023/06/10 10:49:10;;;;;;;3.90;2.17;;;27.60;57.10;;;;;;5057831;28;20064;-69
2023/06/10 10:51:37;;;;;;;1.33;1.27;;;27.60;59.20;;;;;;5066611;28;20136;-69
2023/06/10 10:54:15;;;;;;;1.58;1.48;;;27.70;57.70;;;;;;5059651;28;20052;-69
2023/06/10 10:57:19;;;;;;;0.93;0.90;;;27.80;58.60;;;;;;5067984;28;20056;-69
2023/06/10 10:59:52;;;;;;;1.10;1.08;;;28.00;58.20;;;;;;5058262;28;20048;-69
2023/06/10 11:02:19;;;;;;;0.88;0.85;;;28.20;58.10;;;;;;5066017;28;20296;-70
2023/06/10 11:04:46;;;;;;;0.98;0.85;;;28.40;57.00;;;;;;5066732;28;20143;-70
2023/06/10 11:07:15;;;;;;;1.35;1.10;;;28.60;56.60;;;;;;5060081;28;20041;-70
2023/06/10 11:09:58;;;;;;;1.63;1.52;;;28.70;55.40;;;;;;5066604;28;20083;-70
2023/06/10 11:12:24;;;;;;;1.63;1.52;;;28.60;55.40;;;;;;5056603;28;20143;-70
2023/06/10 11:14:59;;;;;;;0.93;0.93;;;28.70;54.30;;;;;;5068388;28;20056;-69
2023/06/10 11:17:25;;;;;;;2.47;2.28;;;28.80;53.80;;;;;;5070006;28;20082;-70
2023/06/10 11:19:50;;;;;;;8.90;1.95;;;28.90;53.70;;;;;;5045410;28;20045;-69
2023/06/10 11:22:20;;;;;;;1.23;1.17;;;28.90;52.80;;;;;;5066981;28;20802;-70
2023/06/10 11:24:50;;;;;;;1.38;1.13;;;29.00;54.90;;;;;;5064423;28;20039;-69
2023/06/10 11:27:20;;;;;;;1.30;1.30;;;29.00;54.10;;;;;;5060247;28;20545;-69
2023/06/10 11:30:19;;;;;;;2.10;2.00;;;29.00;54.80;;;;;;5070698;28;20049;-70
2023/06/10 11:32:51;;;;;;;3.05;2.65;;;29.10;53.60;;;;;;5065922;28;20056;-70
2023/06/10 11:35:18;;;;;;;1.58;1.48;;;29.00;52.50;;;;;;5065973;28;20045;-69
2023/06/10 11:37:44;;;;;;;1.42;1.33;;;28.90;51.70;;;;;;5067294;28;20128;-70
2023/06/10 11:40:11;;;;;;;1.55;1.45;;;28.90;51.60;;;;;;5072091;28;20044;-70
2023/06/10 11:42:42;;;;;;;1.05;1.02;;;28.90;51.50;;;;;;5065229;28;20135;-70
2023/06/10 11:45:08;;;;;;;1.50;1.40;;;28.90;52.00;;;;;;5065289;28;20047;-69
2023/06/10 11:47:34;;;;;;;0.50;0.50;;;29.10;51.20;;;;;;5069440;28;20048;-70
2023/06/10 11:49:59;;;;;;;2.50;2.08;;;29.20;51.30;;;;;;5068175;28;20691;-70
2023/06/10 11:52:33;;;;;;;2.53;2.33;;;29.30;50.60;;;;;;5070426;28;20045;-70
2023/06/10 11:54:59;;;;;;;2.65;2.53;;;29.30;49.30;;;;;;5064638;28;20056;-69
2023/06/10 11:57:25;;;;;;;2.00;1.90;;;29.10;49.50;;;;;;5065271;28;20049;-69
2023/06/10 11:59:51;;;;;;;1.63;1.52;;;29.00;50.40;;;;;;5064118;28;20037;-70
2023/06/10 12:02:18;;;;;;;1.02;1.02;;;29.10;50.40;;;;;;5068147;28;20044;-70
2023/06/10 12:04:45;;;;;;;2.17;2.05;;;29.10;51.20;;;;;;5058952;28;20116;-69
2023/06/10 12:07:19;;;;;;;2.40;2.10;;;29.10;50.40;;;;;;5063566;28;20095;-69
2023/06/10 12:09:45;;;;;;;1.02;1.02;;;28.90;50.00;;;;;;5070084;28;20051;-69
2023/06/10 12:12:12;;;;;;;1.20;1.13;;;28.90;51.00;;;;;;5066011;28;20044;-69
2023/06/10 12:14:59;;;;;;;1.85;1.10;;;29.10;50.20;;;;;;5050881;28;20551;-70
2023/06/10 12:17:31;;;;;;;1.30;1.30;;;29.30;50.10;;;;;;5069317;28;20048;-69
2023/06/10 12:19:58;;;;;;;2.00;1.52;;;29.40;48.90;;;;;;5069221;28;20040;-69
2023/06/10 12:22:24;;;;;;;1.13;1.13;;;29.30;48.40;;;;;;5060004;28;20346;-70
2023/06/10 12:25:04;;;;;;;1.75;1.65;;;29.40;47.00;;;;;;5064581;28;20088;-69
2023/06/10 12:27:31;;;;;;;4.15;2.00;;;29.50;48.60;;;;;;5067123;28;20059;-69
2023/06/10 12:30:03;;;;;;;1.48;1.38;;;29.40;49.30;;;;;;5056181;28;20071;-69
2023/06/10 12:32:36;;;;;;;2.13;1.92;;;29.10;48.90;;;;;;5070410;28;20505;-69
2023/06/10 12:35:06;;;;;;;1.20;1.20;;;28.90;49.10;;;;;;5070171;28;20059;-70
2023/06/10 12:37:36;;;;;;;1.10;1.08;;;29.00;50.30;;;;;;5066494;28;20044;-71
2023/06/10 12:40:03;;;;;;;1.63;1.52;;;29.10;49.90;;;;;;5070241;28;20068;-77
2023/06/10 12:42:31;;;;;;;3.25;2.65;;;29.20;47.60;;;;;;5058358;28;20095;-79
2023/06/10 12:45:00;;;;;;;1.67;1.48;;;28.90;45.30;;;;;;5066503;28;20057;-79
2023/06/10 12:47:34;;;;;;;1.00;1.00;;;28.80;47.20;;;;;;5065061;28;20044;-79
2023/06/10 12:50:02;;;;;;;1.67;1.58;;;28.80;46.10;;;;;;5062017;28;20043;-81
2023/06/10 12:52:28;;;;;;;0.70;0.70;;;28.90;47.60;;;;;;5060414;28;20754;-80
2023/06/10 12:54:54;;;;;;;2.00;1.88;;;28.90;47.30;;;;;;5058081;28;20051;-80
2023/06/10 12:57:23;;;;;;;2.88;2.42;;;28.80;48.10;;;;;;5065287;28;20069;-79
2023/06/10 12:59:52;;;;;;;2.25;0.90;;;28.70;47.90;;;;;;5067839;28;20082;-81
2023/06/10 13:02:23;;;;;;;2.88;2.67;;;28.80;48.80;;;;;;5057717;28;20099;-81
2023/06/10 13:04:50;;;;;;;2.28;1.95;;;28.80;49.00;;;;;;5067802;28;20045;-80
2023/06/10 13:07:16;;;;;;;2.07;1.97;;;28.70;49.20;;;;;;5065896;28;20040;-82
2023/06/10 13:09:42;;;;;;;2.97;2.78;;;28.70;49.20;;;;;;5056870;28;20106;-80
2023/06/10 13:12:09;;;;;;;0.90;0.85;;;28.80;49.00;;;;;;5055836;28;20098;-81
2023/06/10 13:14:37;;;;;;;2.33;1.98;;;28.90;50.30;;;;;;5063118;28;20049;-80